Weather at Azamgarh Airport

Public forecast

Using degrees Celsius for public forecast. Weather courtesy of forecast.io.

Closest aviation weather report (METAR) to Azamgarh Airport

Report is more than 6 hours old.

Closest report is Gorakhpur Airport, 39.5 nm (73.1 km) NNE.

2024/05/25 06:00 (retrieved 2 days ago)

VEGK 250600Z 14006KT 6000 SCT030 40/24 Q1000 NOSIG

Closest aviation forecast (TAF) to Azamgarh Airport

Forecast is more than 12 hours old.

Closest forecast is Gorakhpur Airport, 39.5 nm (73.1 km) NNE.

2024/05/26 06:00 (retrieved 16 hours ago)

TAF VEGK 260330Z 2606/2618 14008KT 6000 FEW100 SCT200 BECMG 2607/2609 NSC